sensor_id;sensor_type;location;lat;lon;timestamp;P1;durP1;ratioP1;P2;durP2;ratioP2
51048;SDS011;37084;55.228;36.450;2022-12-10T00:01:36;33.58;;;12.93;;
51048;SDS011;37084;55.228;36.450;2022-12-10T00:04:38;32.15;;;11.82;;
51048;SDS011;37084;55.228;36.450;2022-12-10T00:07:41;29.35;;;10.60;;
51048;SDS011;37084;55.228;36.450;2022-12-10T00:10:43;35.05;;;11.95;;
51048;SDS011;37084;55.228;36.450;2022-12-10T00:13:45;27.63;;;11.60;;
51048;SDS011;37084;55.228;36.450;2022-12-10T00:16:48;34.20;;;11.82;;
51048;SDS011;37084;55.228;36.450;2022-12-10T00:19:49;33.45;;;13.05;;
51048;SDS011;37084;55.228;36.450;2022-12-10T00:22:50;35.00;;;12.27;;
51048;SDS011;37084;55.228;36.450;2022-12-10T00:25:53;33.50;;;13.02;;
51048;SDS011;37084;55.228;36.450;2022-12-10T00:28:55;39.92;;;12.68;;
51048;SDS011;37084;55.228;36.450;2022-12-10T00:31:57;32.67;;;12.68;;
51048;SDS011;37084;55.228;36.450;2022-12-10T00:35:00;30.58;;;11.40;;
51048;SDS011;37084;55.228;36.450;2022-12-10T00:38:01;26.10;;;10.50;;
51048;SDS011;37084;55.228;36.450;2022-12-10T00:41:04;29.85;;;13.07;;
51048;SDS011;37084;55.228;36.450;2022-12-10T00:44:11;25.90;;;11.75;;
51048;SDS011;37084;55.228;36.450;2022-12-10T00:47:13;25.58;;;11.35;;
51048;SDS011;37084;55.228;36.450;2022-12-10T00:50:16;34.83;;;12.73;;
51048;SDS011;37084;55.228;36.450;2022-12-10T00:53:18;25.17;;;10.60;;
51048;SDS011;37084;55.228;36.450;2022-12-10T00:56:21;22.48;;;9.48;;
51048;SDS011;37084;55.228;36.450;2022-12-10T00:59:25;36.72;;;12.30;;
51048;SDS011;37084;55.228;36.450;2022-12-10T01:02:27;29.77;;;10.55;;
51048;SDS011;37084;55.228;36.450;2022-12-10T01:05:29;28.10;;;10.07;;
51048;SDS011;37084;55.228;36.450;2022-12-10T01:08:33;28.55;;;10.65;;
51048;SDS011;37084;55.228;36.450;2022-12-10T01:11:36;28.42;;;11.35;;
51048;SDS011;37084;55.228;36.450;2022-12-10T01:14:40;29.35;;;11.52;;
51048;SDS011;37084;55.228;36.450;2022-12-10T01:17:44;34.42;;;11.90;;
51048;SDS011;37084;55.228;36.450;2022-12-10T01:20:48;26.23;;;11.15;;
51048;SDS011;37084;55.228;36.450;2022-12-10T01:23:51;26.98;;;11.02;;
51048;SDS011;37084;55.228;36.450;2022-12-10T01:26:54;24.67;;;11.27;;
51048;SDS011;37084;55.228;36.450;2022-12-10T01:29:59;31.70;;;12.20;;
51048;SDS011;37084;55.228;36.450;2022-12-10T01:33:01;28.45;;;11.10;;
51048;SDS011;37084;55.228;36.450;2022-12-10T01:36:05;25.02;;;11.73;;
51048;SDS011;37084;55.228;36.450;2022-12-10T01:39:11;32.50;;;11.98;;
51048;SDS011;37084;55.228;36.450;2022-12-10T01:42:15;24.88;;;10.80;;
51048;SDS011;37084;55.228;36.450;2022-12-10T01:45:17;28.90;;;10.90;;
51048;SDS011;37084;55.228;36.450;2022-12-10T01:48:20;30.23;;;12.07;;
51048;SDS011;37084;55.228;36.450;2022-12-10T01:51:23;36.03;;;11.90;;
51048;SDS011;37084;55.228;36.450;2022-12-10T01:54:28;27.77;;;11.60;;
51048;SDS011;37084;55.228;36.450;2022-12-10T01:57:32;27.30;;;10.88;;
51048;SDS011;37084;55.228;36.450;2022-12-10T02:00:36;24.48;;;11.02;;
51048;SDS011;37084;55.228;36.450;2022-12-10T02:14:15;22.92;;;9.25;;
51048;SDS011;37084;55.228;36.450;2022-12-10T02:24:07;25.05;;;9.60;;
51048;SDS011;37084;55.228;36.450;2022-12-10T02:27:19;25.38;;;9.88;;
51048;SDS011;37084;55.228;36.450;2022-12-10T02:30:26;21.38;;;9.38;;
51048;SDS011;37084;55.228;36.450;2022-12-10T02:33:28;22.67;;;9.90;;
51048;SDS011;37084;55.228;36.450;2022-12-10T02:36:33;24.95;;;8.93;;
51048;SDS011;37084;55.228;36.450;2022-12-10T02:39:38;21.60;;;10.00;;
51048;SDS011;37084;55.228;36.450;2022-12-10T02:42:42;22.15;;;9.32;;
51048;SDS011;37084;55.228;36.450;2022-12-10T02:45:46;27.67;;;9.50;;
51048;SDS011;37084;55.228;36.450;2022-12-10T02:48:49;24.67;;;10.20;;
51048;SDS011;37084;55.228;36.450;2022-12-10T02:51:52;22.92;;;8.52;;
51048;SDS011;37084;55.228;36.450;2022-12-10T02:54:55;21.58;;;9.70;;
51048;SDS011;37084;55.228;36.450;2022-12-10T02:58:14;28.17;;;10.10;;
51048;SDS011;37084;55.228;36.450;2022-12-10T03:01:46;21.05;;;9.10;;
51048;SDS011;37084;55.228;36.450;2022-12-10T03:05:05;21.20;;;8.80;;
51048;SDS011;37084;55.228;36.450;2022-12-10T03:08:21;23.48;;;9.95;;
51048;SDS011;37084;55.228;36.450;2022-12-10T03:11:31;21.20;;;9.00;;
51048;SDS011;37084;55.228;36.450;2022-12-10T03:14:33;25.65;;;10.32;;
51048;SDS011;37084;55.228;36.450;2022-12-10T03:17:38;24.45;;;10.35;;
51048;SDS011;37084;55.228;36.450;2022-12-10T03:20:42;26.77;;;9.77;;
51048;SDS011;37084;55.228;36.450;2022-12-10T03:23:46;23.65;;;10.57;;
51048;SDS011;37084;55.228;36.450;2022-12-10T03:26:50;22.20;;;9.68;;
51048;SDS011;37084;55.228;36.450;2022-12-10T03:29:54;25.35;;;9.77;;
51048;SDS011;37084;55.228;36.450;2022-12-10T03:33:02;25.98;;;11.73;;
51048;SDS011;37084;55.228;36.450;2022-12-10T03:36:05;26.38;;;10.73;;
51048;SDS011;37084;55.228;36.450;2022-12-10T03:39:08;23.55;;;10.18;;
51048;SDS011;37084;55.228;36.450;2022-12-10T03:42:10;30.33;;;11.80;;
51048;SDS011;37084;55.228;36.450;2022-12-10T03:45:12;23.77;;;9.77;;
51048;SDS011;37084;55.228;36.450;2022-12-10T03:48:15;27.58;;;10.88;;
51048;SDS011;37084;55.228;36.450;2022-12-10T03:51:18;24.05;;;10.00;;
51048;SDS011;37084;55.228;36.450;2022-12-10T03:54:20;25.08;;;10.38;;
51048;SDS011;37084;55.228;36.450;2022-12-10T03:57:23;22.25;;;8.18;;
51048;SDS011;37084;55.228;36.450;2022-12-10T04:00:25;26.23;;;10.73;;
51048;SDS011;37084;55.228;36.450;2022-12-10T04:03:27;24.27;;;9.52;;
51048;SDS011;37084;55.228;36.450;2022-12-10T04:06:29;24.00;;;10.15;;
51048;SDS011;37084;55.228;36.450;2022-12-10T04:09:31;32.42;;;12.27;;
51048;SDS011;37084;55.228;36.450;2022-12-10T04:12:33;28.13;;;10.13;;
51048;SDS011;37084;55.228;36.450;2022-12-10T04:15:37;26.80;;;11.10;;
51048;SDS011;37084;55.228;36.450;2022-12-10T04:18:58;28.50;;;10.35;;
51048;SDS011;37084;55.228;36.450;2022-12-10T04:22:08;25.05;;;10.63;;
51048;SDS011;37084;55.228;36.450;2022-12-10T04:25:28;25.92;;;9.30;;
51048;SDS011;37084;55.228;36.450;2022-12-10T04:28:47;35.65;;;12.35;;
51048;SDS011;37084;55.228;36.450;2022-12-10T04:31:48;27.92;;;10.65;;
51048;SDS011;37084;55.228;36.450;2022-12-10T04:34:49;25.33;;;9.05;;
51048;SDS011;37084;55.228;36.450;2022-12-10T04:37:51;27.20;;;10.68;;
51048;SDS011;37084;55.228;36.450;2022-12-10T04:40:52;25.38;;;10.57;;
51048;SDS011;37084;55.228;36.450;2022-12-10T04:43:53;31.85;;;10.90;;
51048;SDS011;37084;55.228;36.450;2022-12-10T04:46:54;30.05;;;10.73;;
51048;SDS011;37084;55.228;36.450;2022-12-10T04:49:55;30.52;;;11.25;;
51048;SDS011;37084;55.228;36.450;2022-12-10T04:52:56;23.65;;;9.38;;
51048;SDS011;37084;55.228;36.450;2022-12-10T04:55:57;30.70;;;11.55;;
51048;SDS011;37084;55.228;36.450;2022-12-10T04:58:59;28.70;;;11.93;;
51048;SDS011;37084;55.228;36.450;2022-12-10T05:02:00;37.38;;;14.88;;
51048;SDS011;37084;55.228;36.450;2022-12-10T05:05:01;32.53;;;12.48;;
51048;SDS011;37084;55.228;36.450;2022-12-10T05:08:03;33.85;;;11.55;;
51048;SDS011;37084;55.228;36.450;2022-12-10T05:11:06;31.02;;;13.13;;
51048;SDS011;37084;55.228;36.450;2022-12-10T05:14:10;28.40;;;12.38;;
51048;SDS011;37084;55.228;36.450;2022-12-10T05:17:12;31.70;;;12.73;;
51048;SDS011;37084;55.228;36.450;2022-12-10T05:20:13;35.63;;;13.82;;
51048;SDS011;37084;55.228;36.450;2022-12-10T05:23:14;33.65;;;12.50;;
51048;SDS011;37084;55.228;36.450;2022-12-10T05:26:28;34.22;;;12.00;;
51048;SDS011;37084;55.228;36.450;2022-12-10T05:29:31;28.67;;;11.77;;
51048;SDS011;37084;55.228;36.450;2022-12-10T05:32:34;40.25;;;13.40;;
51048;SDS011;37084;55.228;36.450;2022-12-10T05:35:36;37.53;;;11.13;;
51048;SDS011;37084;55.228;36.450;2022-12-10T05:38:39;33.47;;;11.50;;
51048;SDS011;37084;55.228;36.450;2022-12-10T05:41:41;30.65;;;12.55;;
51048;SDS011;37084;55.228;36.450;2022-12-10T05:44:45;37.22;;;14.30;;
51048;SDS011;37084;55.228;36.450;2022-12-10T05:47:48;34.33;;;12.98;;
51048;SDS011;37084;55.228;36.450;2022-12-10T05:50:50;38.33;;;13.40;;
51048;SDS011;37084;55.228;36.450;2022-12-10T05:53:52;40.05;;;13.90;;
51048;SDS011;37084;55.228;36.450;2022-12-10T05:56:55;36.55;;;13.18;;
51048;SDS011;37084;55.228;36.450;2022-12-10T05:59:57;41.63;;;13.82;;
51048;SDS011;37084;55.228;36.450;2022-12-10T06:03:00;34.30;;;12.65;;
51048;SDS011;37084;55.228;36.450;2022-12-10T06:06:03;37.92;;;14.13;;
51048;SDS011;37084;55.228;36.450;2022-12-10T06:09:07;37.28;;;13.75;;
51048;SDS011;37084;55.228;36.450;2022-12-10T06:12:13;39.85;;;14.75;;
51048;SDS011;37084;55.228;36.450;2022-12-10T06:15:15;44.70;;;16.95;;
51048;SDS011;37084;55.228;36.450;2022-12-10T06:18:18;42.70;;;16.20;;
51048;SDS011;37084;55.228;36.450;2022-12-10T06:21:20;44.72;;;15.75;;
51048;SDS011;37084;55.228;36.450;2022-12-10T06:24:22;37.00;;;13.93;;
51048;SDS011;37084;55.228;36.450;2022-12-10T06:27:25;44.70;;;16.17;;
51048;SDS011;37084;55.228;36.450;2022-12-10T06:30:27;39.70;;;15.00;;
51048;SDS011;37084;55.228;36.450;2022-12-10T06:33:29;43.22;;;15.65;;
51048;SDS011;37084;55.228;36.450;2022-12-10T06:36:34;37.33;;;14.35;;
51048;SDS011;37084;55.228;36.450;2022-12-10T06:39:36;41.22;;;16.52;;
51048;SDS011;37084;55.228;36.450;2022-12-10T06:45:47;39.28;;;14.77;;
51048;SDS011;37084;55.228;36.450;2022-12-10T06:48:50;44.47;;;15.48;;
51048;SDS011;37084;55.228;36.450;2022-12-10T06:51:52;42.28;;;13.30;;
51048;SDS011;37084;55.228;36.450;2022-12-10T06:54:54;37.45;;;14.40;;
51048;SDS011;37084;55.228;36.450;2022-12-10T06:57:56;42.88;;;12.88;;
51048;SDS011;37084;55.228;36.450;2022-12-10T07:01:05;39.78;;;14.60;;
51048;SDS011;37084;55.228;36.450;2022-12-10T07:04:08;42.60;;;16.90;;
51048;SDS011;37084;55.228;36.450;2022-12-10T07:07:11;42.85;;;15.45;;
51048;SDS011;37084;55.228;36.450;2022-12-10T07:10:13;35.58;;;13.90;;
51048;SDS011;37084;55.228;36.450;2022-12-10T07:13:16;39.38;;;14.23;;
51048;SDS011;37084;55.228;36.450;2022-12-10T07:16:19;38.55;;;15.07;;
51048;SDS011;37084;55.228;36.450;2022-12-10T07:19:32;43.28;;;15.30;;
51048;SDS011;37084;55.228;36.450;2022-12-10T07:22:35;40.65;;;15.93;;
51048;SDS011;37084;55.228;36.450;2022-12-10T07:25:38;40.80;;;15.30;;
51048;SDS011;37084;55.228;36.450;2022-12-10T07:28:40;42.75;;;15.60;;
51048;SDS011;37084;55.228;36.450;2022-12-10T07:31:43;43.92;;;14.00;;
51048;SDS011;37084;55.228;36.450;2022-12-10T07:34:46;41.20;;;14.45;;
51048;SDS011;37084;55.228;36.450;2022-12-10T07:37:49;41.47;;;14.85;;
51048;SDS011;37084;55.228;36.450;2022-12-10T07:40:52;39.65;;;14.07;;
51048;SDS011;37084;55.228;36.450;2022-12-10T07:43:54;38.40;;;14.95;;
51048;SDS011;37084;55.228;36.450;2022-12-10T07:46:56;42.70;;;15.13;;
51048;SDS011;37084;55.228;36.450;2022-12-10T07:49:59;39.42;;;14.40;;
51048;SDS011;37084;55.228;36.450;2022-12-10T07:53:01;39.45;;;15.00;;
51048;SDS011;37084;55.228;36.450;2022-12-10T07:56:04;39.95;;;16.17;;
51048;SDS011;37084;55.228;36.450;2022-12-10T07:59:07;41.60;;;15.05;;
51048;SDS011;37084;55.228;36.450;2022-12-10T08:02:09;44.30;;;15.18;;
51048;SDS011;37084;55.228;36.450;2022-12-10T08:05:12;38.30;;;15.73;;
51048;SDS011;37084;55.228;36.450;2022-12-10T08:08:14;42.78;;;15.93;;
51048;SDS011;37084;55.228;36.450;2022-12-10T08:11:17;45.95;;;15.80;;
51048;SDS011;37084;55.228;36.450;2022-12-10T08:14:20;37.25;;;15.40;;
51048;SDS011;37084;55.228;36.450;2022-12-10T08:17:22;38.70;;;16.77;;
51048;SDS011;37084;55.228;36.450;2022-12-10T08:20:25;50.92;;;17.45;;
51048;SDS011;37084;55.228;36.450;2022-12-10T08:23:27;41.35;;;14.77;;
51048;SDS011;37084;55.228;36.450;2022-12-10T08:26:31;47.78;;;18.52;;
51048;SDS011;37084;55.228;36.450;2022-12-10T08:29:34;44.40;;;17.13;;
51048;SDS011;37084;55.228;36.450;2022-12-10T08:32:36;46.33;;;16.73;;
51048;SDS011;37084;55.228;36.450;2022-12-10T08:35:38;45.25;;;17.55;;
51048;SDS011;37084;55.228;36.450;2022-12-10T08:38:41;41.58;;;17.17;;
51048;SDS011;37084;55.228;36.450;2022-12-10T08:41:45;38.15;;;15.90;;
51048;SDS011;37084;55.228;36.450;2022-12-10T08:44:47;45.38;;;17.38;;
51048;SDS011;37084;55.228;36.450;2022-12-10T08:47:51;52.88;;;17.23;;
51048;SDS011;37084;55.228;36.450;2022-12-10T08:50:54;44.13;;;17.88;;
51048;SDS011;37084;55.228;36.450;2022-12-10T08:53:59;46.17;;;17.38;;
51048;SDS011;37084;55.228;36.450;2022-12-10T08:57:03;41.88;;;16.90;;
51048;SDS011;37084;55.228;36.450;2022-12-10T09:00:05;49.08;;;18.58;;
51048;SDS011;37084;55.228;36.450;2022-12-10T09:03:08;51.88;;;18.48;;
51048;SDS011;37084;55.228;36.450;2022-12-10T09:06:15;52.97;;;18.63;;
51048;SDS011;37084;55.228;36.450;2022-12-10T09:09:19;45.45;;;16.88;;
51048;SDS011;37084;55.228;36.450;2022-12-10T09:12:21;47.88;;;17.70;;
51048;SDS011;37084;55.228;36.450;2022-12-10T09:15:23;45.65;;;16.98;;
51048;SDS011;37084;55.228;36.450;2022-12-10T09:18:27;47.38;;;18.77;;
51048;SDS011;37084;55.228;36.450;2022-12-10T09:21:29;50.58;;;18.98;;
51048;SDS011;37084;55.228;36.450;2022-12-10T09:24:34;46.35;;;18.52;;
51048;SDS011;37084;55.228;36.450;2022-12-10T09:27:36;45.20;;;17.80;;
51048;SDS011;37084;55.228;36.450;2022-12-10T09:30:39;45.50;;;17.17;;
51048;SDS011;37084;55.228;36.450;2022-12-10T09:33:41;44.00;;;16.45;;
51048;SDS011;37084;55.228;36.450;2022-12-10T09:36:44;47.15;;;16.02;;
51048;SDS011;37084;55.228;36.450;2022-12-10T09:39:47;47.60;;;17.30;;
51048;SDS011;37084;55.228;36.450;2022-12-10T09:42:54;44.63;;;16.65;;
51048;SDS011;37084;55.228;36.450;2022-12-10T09:53:20;47.63;;;17.63;;
51048;SDS011;37084;55.228;36.450;2022-12-10T09:56:23;48.67;;;17.73;;
51048;SDS011;37084;55.228;36.450;2022-12-10T09:59:39;52.90;;;18.90;;
51048;SDS011;37084;55.228;36.450;2022-12-10T10:02:44;50.78;;;16.40;;
51048;SDS011;37084;55.228;36.450;2022-12-10T10:05:48;53.10;;;17.95;;
51048;SDS011;37084;55.228;36.450;2022-12-10T10:08:52;50.28;;;16.35;;
51048;SDS011;37084;55.228;36.450;2022-12-10T10:11:56;50.72;;;17.77;;
51048;SDS011;37084;55.228;36.450;2022-12-10T10:15:09;51.78;;;16.75;;
51048;SDS011;37084;55.228;36.450;2022-12-10T10:21:37;53.33;;;18.20;;
51048;SDS011;37084;55.228;36.450;2022-12-10T10:24:52;61.58;;;18.00;;
51048;SDS011;37084;55.228;36.450;2022-12-10T10:27:55;53.08;;;18.45;;
51048;SDS011;37084;55.228;36.450;2022-12-10T10:30:58;51.08;;;17.88;;
51048;SDS011;37084;55.228;36.450;2022-12-10T10:34:05;52.75;;;17.17;;
51048;SDS011;37084;55.228;36.450;2022-12-10T10:37:18;47.10;;;17.38;;
51048;SDS011;37084;55.228;36.450;2022-12-10T10:40:41;49.88;;;17.15;;
51048;SDS011;37084;55.228;36.450;2022-12-10T10:43:45;38.85;;;15.93;;
51048;SDS011;37084;55.228;36.450;2022-12-10T10:46:50;43.08;;;16.77;;
51048;SDS011;37084;55.228;36.450;2022-12-10T10:49:53;47.83;;;17.08;;
51048;SDS011;37084;55.228;36.450;2022-12-10T10:52:56;43.28;;;14.65;;
51048;SDS011;37084;55.228;36.450;2022-12-10T10:56:17;41.03;;;14.77;;
51048;SDS011;37084;55.228;36.450;2022-12-10T10:59:32;39.67;;;14.90;;
51048;SDS011;37084;55.228;36.450;2022-12-10T11:02:36;39.08;;;15.13;;
51048;SDS011;37084;55.228;36.450;2022-12-10T11:05:40;39.95;;;15.77;;
51048;SDS011;37084;55.228;36.450;2022-12-10T11:08:43;39.92;;;14.52;;
51048;SDS011;37084;55.228;36.450;2022-12-10T11:11:52;37.53;;;15.68;;
51048;SDS011;37084;55.228;36.450;2022-12-10T11:15:24;41.83;;;13.98;;
51048;SDS011;37084;55.228;36.450;2022-12-10T11:18:36;42.83;;;16.15;;
51048;SDS011;37084;55.228;36.450;2022-12-10T11:21:40;47.47;;;16.85;;
51048;SDS011;37084;55.228;36.450;2022-12-10T11:24:42;39.13;;;16.30;;
51048;SDS011;37084;55.228;36.450;2022-12-10T11:44:25;31.60;;;12.00;;
51048;SDS011;37084;55.228;36.450;2022-12-10T11:47:44;33.85;;;12.93;;
51048;SDS011;37084;55.228;36.450;2022-12-10T11:51:11;33.33;;;12.93;;
51048;SDS011;37084;55.228;36.450;2022-12-10T11:57:48;32.92;;;12.50;;
51048;SDS011;37084;55.228;36.450;2022-12-10T12:15:01;36.67;;;14.00;;
51048;SDS011;37084;55.228;36.450;2022-12-10T12:21:28;32.75;;;11.30;;
51048;SDS011;37084;55.228;36.450;2022-12-10T12:24:35;30.38;;;13.00;;
51048;SDS011;37084;55.228;36.450;2022-12-10T12:27:43;30.08;;;12.30;;
51048;SDS011;37084;55.228;36.450;2022-12-10T12:30:58;32.50;;;13.13;;
51048;SDS011;37084;55.228;36.450;2022-12-10T12:37:49;30.48;;;14.50;;
51048;SDS011;37084;55.228;36.450;2022-12-10T12:41:04;29.40;;;13.10;;
51048;SDS011;37084;55.228;36.450;2022-12-10T12:54:10;32.00;;;12.85;;
51048;SDS011;37084;55.228;36.450;2022-12-10T12:57:34;29.17;;;14.05;;
51048;SDS011;37084;55.228;36.450;2022-12-10T13:00:46;39.25;;;15.02;;
51048;SDS011;37084;55.228;36.450;2022-12-10T13:03:51;30.75;;;13.63;;
51048;SDS011;37084;55.228;36.450;2022-12-10T13:19:46;23.10;;;10.93;;
51048;SDS011;37084;55.228;36.450;2022-12-10T13:26:32;22.02;;;10.10;;
51048;SDS011;37084;55.228;36.450;2022-12-10T13:37:02;27.80;;;11.57;;
51048;SDS011;37084;55.228;36.450;2022-12-10T13:39:53;25.42;;;10.02;;
51048;SDS011;37084;55.228;36.450;2022-12-10T13:47:24;22.38;;;9.43;;
51048;SDS011;37084;55.228;36.450;2022-12-10T14:00:19;31.40;;;11.32;;
51048;SDS011;37084;55.228;36.450;2022-12-10T14:06:50;32.15;;;12.07;;
51048;SDS011;37084;55.228;36.450;2022-12-10T14:09:54;32.47;;;12.52;;
51048;SDS011;37084;55.228;36.450;2022-12-10T14:12:59;40.03;;;13.68;;
51048;SDS011;37084;55.228;36.450;2022-12-10T14:16:05;32.95;;;12.35;;
51048;SDS011;37084;55.228;36.450;2022-12-10T14:19:12;38.58;;;12.85;;
51048;SDS011;37084;55.228;36.450;2022-12-10T14:22:35;29.52;;;11.15;;
51048;SDS011;37084;55.228;36.450;2022-12-10T14:25:42;36.85;;;12.60;;
51048;SDS011;37084;55.228;36.450;2022-12-10T14:28:50;33.75;;;13.15;;
51048;SDS011;37084;55.228;36.450;2022-12-10T14:32:01;42.15;;;16.65;;
51048;SDS011;37084;55.228;36.450;2022-12-10T14:35:05;35.33;;;12.90;;
51048;SDS011;37084;55.228;36.450;2022-12-10T14:38:14;34.25;;;12.07;;
51048;SDS011;37084;55.228;36.450;2022-12-10T14:41:23;38.05;;;12.70;;
51048;SDS011;37084;55.228;36.450;2022-12-10T14:44:26;40.72;;;14.43;;
51048;SDS011;37084;55.228;36.450;2022-12-10T14:47:38;50.05;;;18.85;;
51048;SDS011;37084;55.228;36.450;2022-12-10T14:50:44;36.67;;;12.90;;
51048;SDS011;37084;55.228;36.450;2022-12-10T14:53:47;36.00;;;12.98;;
51048;SDS011;37084;55.228;36.450;2022-12-10T14:56:51;36.53;;;12.38;;
51048;SDS011;37084;55.228;36.450;2022-12-10T15:00:07;34.47;;;13.00;;
51048;SDS011;37084;55.228;36.450;2022-12-10T15:03:32;30.25;;;12.35;;
51048;SDS011;37084;55.228;36.450;2022-12-10T15:06:39;32.67;;;13.20;;
51048;SDS011;37084;55.228;36.450;2022-12-10T15:09:41;31.90;;;13.05;;
51048;SDS011;37084;55.228;36.450;2022-12-10T15:12:48;32.90;;;12.32;;
51048;SDS011;37084;55.228;36.450;2022-12-10T15:15:52;27.15;;;12.15;;
51048;SDS011;37084;55.228;36.450;2022-12-10T15:18:55;27.92;;;11.25;;
51048;SDS011;37084;55.228;36.450;2022-12-10T15:22:02;33.13;;;12.60;;
51048;SDS011;37084;55.228;36.450;2022-12-10T15:25:28;33.13;;;12.57;;
51048;SDS011;37084;55.228;36.450;2022-12-10T15:31:38;27.73;;;12.27;;
51048;SDS011;37084;55.228;36.450;2022-12-10T15:35:05;30.98;;;12.52;;
51048;SDS011;37084;55.228;36.450;2022-12-10T15:38:11;28.67;;;12.80;;
51048;SDS011;37084;55.228;36.450;2022-12-10T15:44:48;28.92;;;12.30;;
51048;SDS011;37084;55.228;36.450;2022-12-10T15:47:50;28.35;;;11.32;;
51048;SDS011;37084;55.228;36.450;2022-12-10T15:50:52;28.83;;;11.40;;
51048;SDS011;37084;55.228;36.450;2022-12-10T15:53:54;26.33;;;11.07;;
51048;SDS011;37084;55.228;36.450;2022-12-10T15:56:57;28.10;;;12.00;;
51048;SDS011;37084;55.228;36.450;2022-12-10T16:00:00;30.40;;;11.15;;
51048;SDS011;37084;55.228;36.450;2022-12-10T16:03:15;26.60;;;11.02;;
51048;SDS011;37084;55.228;36.450;2022-12-10T16:06:20;25.88;;;10.20;;
51048;SDS011;37084;55.228;36.450;2022-12-10T16:09:22;25.08;;;10.88;;
51048;SDS011;37084;55.228;36.450;2022-12-10T16:12:25;27.80;;;10.48;;
51048;SDS011;37084;55.228;36.450;2022-12-10T16:15:31;25.63;;;11.88;;
51048;SDS011;37084;55.228;36.450;2022-12-10T16:18:37;27.23;;;11.32;;
51048;SDS011;37084;55.228;36.450;2022-12-10T16:21:40;25.30;;;14.20;;
51048;SDS011;37084;55.228;36.450;2022-12-10T16:24:45;25.73;;;13.18;;
51048;SDS011;37084;55.228;36.450;2022-12-10T16:27:48;32.05;;;13.98;;
51048;SDS011;37084;55.228;36.450;2022-12-10T16:33:58;25.67;;;12.23;;
51048;SDS011;37084;55.228;36.450;2022-12-10T16:37:00;44.10;;;21.80;;
51048;SDS011;37084;55.228;36.450;2022-12-10T16:40:03;35.63;;;14.80;;
51048;SDS011;37084;55.228;36.450;2022-12-10T16:43:08;28.42;;;13.63;;
51048;SDS011;37084;55.228;36.450;2022-12-10T16:46:40;29.65;;;13.07;;
51048;SDS011;37084;55.228;36.450;2022-12-10T16:49:42;42.75;;;17.17;;
51048;SDS011;37084;55.228;36.450;2022-12-10T16:52:44;31.77;;;13.88;;
51048;SDS011;37084;55.228;36.450;2022-12-10T16:55:47;29.13;;;12.07;;
51048;SDS011;37084;55.228;36.450;2022-12-10T16:58:50;32.05;;;13.65;;
51048;SDS011;37084;55.228;36.450;2022-12-10T17:01:52;25.85;;;12.60;;
51048;SDS011;37084;55.228;36.450;2022-12-10T17:04:56;21.20;;;10.45;;
51048;SDS011;37084;55.228;36.450;2022-12-10T17:07:59;22.88;;;9.60;;
51048;SDS011;37084;55.228;36.450;2022-12-10T17:11:04;23.40;;;9.82;;
51048;SDS011;37084;55.228;36.450;2022-12-10T17:14:43;21.48;;;9.45;;
51048;SDS011;37084;55.228;36.450;2022-12-10T17:17:48;26.05;;;10.50;;
51048;SDS011;37084;55.228;36.450;2022-12-10T17:20:50;26.08;;;11.07;;
51048;SDS011;37084;55.228;36.450;2022-12-10T17:23:54;22.85;;;9.40;;
51048;SDS011;37084;55.228;36.450;2022-12-10T17:26:58;24.65;;;10.90;;
51048;SDS011;37084;55.228;36.450;2022-12-10T17:30:11;27.63;;;11.27;;
51048;SDS011;37084;55.228;36.450;2022-12-10T17:33:20;17.58;;;8.90;;
51048;SDS011;37084;55.228;36.450;2022-12-10T17:36:23;22.35;;;10.48;;
51048;SDS011;37084;55.228;36.450;2022-12-10T17:39:26;24.48;;;10.35;;
51048;SDS011;37084;55.228;36.450;2022-12-10T17:42:31;21.77;;;9.32;;
51048;SDS011;37084;55.228;36.450;2022-12-10T17:45:34;20.30;;;6.75;;
51048;SDS011;37084;55.228;36.450;2022-12-10T17:48:37;19.60;;;8.60;;
51048;SDS011;37084;55.228;36.450;2022-12-10T17:51:40;17.83;;;8.38;;
51048;SDS011;37084;55.228;36.450;2022-12-10T17:54:43;17.05;;;7.82;;
51048;SDS011;37084;55.228;36.450;2022-12-10T17:57:45;16.75;;;8.00;;
51048;SDS011;37084;55.228;36.450;2022-12-10T18:00:48;18.52;;;7.90;;
51048;SDS011;37084;55.228;36.450;2022-12-10T18:03:51;19.05;;;8.27;;
51048;SDS011;37084;55.228;36.450;2022-12-10T18:06:54;20.55;;;8.40;;
51048;SDS011;37084;55.228;36.450;2022-12-10T18:09:56;17.05;;;7.63;;
51048;SDS011;37084;55.228;36.450;2022-12-10T18:12:59;17.05;;;8.38;;
51048;SDS011;37084;55.228;36.450;2022-12-10T18:16:09;18.00;;;8.45;;
51048;SDS011;37084;55.228;36.450;2022-12-10T18:19:15;21.23;;;10.77;;
51048;SDS011;37084;55.228;36.450;2022-12-10T18:22:17;14.55;;;7.82;;
51048;SDS011;37084;55.228;36.450;2022-12-10T18:25:21;19.13;;;8.70;;
51048;SDS011;37084;55.228;36.450;2022-12-10T18:31:28;15.27;;;6.88;;
51048;SDS011;37084;55.228;36.450;2022-12-10T18:34:35;15.05;;;8.40;;
51048;SDS011;37084;55.228;36.450;2022-12-10T18:37:37;13.13;;;7.25;;
51048;SDS011;37084;55.228;36.450;2022-12-10T18:40:44;14.68;;;6.57;;
51048;SDS011;37084;55.228;36.450;2022-12-10T18:43:46;15.30;;;7.53;;
51048;SDS011;37084;55.228;36.450;2022-12-10T18:46:50;15.82;;;7.47;;
51048;SDS011;37084;55.228;36.450;2022-12-10T18:49:53;15.45;;;6.90;;
51048;SDS011;37084;55.228;36.450;2022-12-10T18:52:56;14.38;;;7.28;;
51048;SDS011;37084;55.228;36.450;2022-12-10T18:55:58;17.52;;;8.80;;
51048;SDS011;37084;55.228;36.450;2022-12-10T18:59:01;13.88;;;7.47;;
51048;SDS011;37084;55.228;36.450;2022-12-10T19:02:04;14.43;;;7.55;;
51048;SDS011;37084;55.228;36.450;2022-12-10T19:05:07;15.18;;;7.22;;
51048;SDS011;37084;55.228;36.450;2022-12-10T19:08:10;19.75;;;10.10;;
51048;SDS011;37084;55.228;36.450;2022-12-10T19:11:13;15.15;;;8.63;;
51048;SDS011;37084;55.228;36.450;2022-12-10T19:14:19;18.23;;;8.07;;
51048;SDS011;37084;55.228;36.450;2022-12-10T19:17:21;12.65;;;6.68;;
51048;SDS011;37084;55.228;36.450;2022-12-10T19:20:24;14.95;;;8.65;;
51048;SDS011;37084;55.228;36.450;2022-12-10T19:23:27;21.02;;;11.73;;
51048;SDS011;37084;55.228;36.450;2022-12-10T19:26:31;46.63;;;21.52;;
51048;SDS011;37084;55.228;36.450;2022-12-10T19:29:35;14.80;;;7.18;;
51048;SDS011;37084;55.228;36.450;2022-12-10T19:32:39;15.57;;;8.98;;
51048;SDS011;37084;55.228;36.450;2022-12-10T19:35:42;37.15;;;21.45;;
51048;SDS011;37084;55.228;36.450;2022-12-10T19:38:47;33.25;;;20.83;;
51048;SDS011;37084;55.228;36.450;2022-12-10T19:41:50;25.02;;;16.17;;
51048;SDS011;37084;55.228;36.450;2022-12-10T19:44:54;11.93;;;7.65;;
51048;SDS011;37084;55.228;36.450;2022-12-10T19:47:56;12.85;;;6.55;;
51048;SDS011;37084;55.228;36.450;2022-12-10T19:50:59;12.50;;;7.50;;
51048;SDS011;37084;55.228;36.450;2022-12-10T19:54:01;11.32;;;6.03;;
51048;SDS011;37084;55.228;36.450;2022-12-10T19:57:04;10.40;;;5.88;;
51048;SDS011;37084;55.228;36.450;2022-12-10T20:00:27;10.55;;;5.82;;
51048;SDS011;37084;55.228;36.450;2022-12-10T20:03:31;8.25;;;5.80;;
51048;SDS011;37084;55.228;36.450;2022-12-10T20:06:36;12.60;;;6.25;;